Terminal Aerodrome Forecast
Issued by NWS Albuquerque, NM

Home | Current Version | Previous Version | Text Only | Print | Product List | Glossary On
Versions: 1 2 3 4 5 6 7 8 9 10 11 12 13
452
FTUS45 KABQ 041122
TAFABQ
TAF
KABQ 041122Z 0412/0512 02008KT P6SM FEW200
     FM041500 VRB03KT P6SM FEW200
     FM041900 20007KT P6SM FEW120
     FM050300 12006KT P6SM FEW120=

USA.gov is the U.S. government's official web portal to all federal, state and local government web resources and services.